Pacific Dawn — 2AGH7 — position and weather

sailwx.info

Track history (hours):
 
Tides and Currents Weather Stations Pressure Air Temp Water Temp Dewpoint Dewpoint Depression Visibility Wind Speed Wind Dir Waves Ship Positions

Pacific Dawn

Last reported at 2018-May-22 12:00 UTC. Time now 2018-May-24 09:58 UTC.
Position S 19°18' E 167°36'.

Length 245 m; draft 8.3 m.

Type: Passenger vessel. MMSI: 235059368.

Wind from 140 at 25 knots

Barometer 1014.0 mb
Air temperature 24.0 ° C
Visibility: greater than 10.8 NM
Dewpoint 21.0 ° C
Water temperature 21.0 ° C

Date/timePositionNaut miles runAvg speedWind from/ knotsBaromVisibWave heightAir tempDewpointWater temp
2018-May-22 12:00S 19°18' E 167°36'191 8.0 140 / 251014.010.8 24.021.021.0
2018-May-21 12:02S 22°24' E 166°47'116.0
2018-May-21 11:57S 22°24' E 166°46'817.4
2018-May-21 11:30S 22°23' E 166°37'917.3
2018-May-21 11:00S 22°20' E 166°28'4 8.6
2018-May-21 10:30S 22°16' E 166°26'0 0.5
2018-May-21 10:00S 22°16' E 166°26'0 0.0
2018-May-21 09:30S 22°16' E 166°26'0 0.0
2018-May-21 09:00S 22°16' E 166°26'0 0.0
2018-May-21 08:30S 22°16' E 166°26'0 0.0
2018-May-21 08:00S 22°16' E 166°26'0 0.0
2018-May-21 07:30S 22°16' E 166°26'0 0.0
2018-May-21 07:00S 22°16' E 166°26'0 0.0
2018-May-21 06:30S 22°16' E 166°26'0 0.0
2018-May-21 06:00S 22°16' E 166°26'0 0.0
2018-May-21 05:30S 22°16' E 166°26'0 0.0
2018-May-21 05:00S 22°16' E 166°26'0 0.0
2018-May-21 04:30S 22°16' E 166°26'0 0.0
2018-May-21 04:00S 22°16' E 166°26'2 3.1
2018-May-21 03:30S 22°17' E 166°25'815.2
2018-May-21 03:00S 22°20' E 166°17'612.6
2018-May-21 02:30S 22°24' E 166°12'5315.2
2018-May-20 23:00S 22°42' E 165°18'6321.1 160 / 191015.110.8 26.020.426.9
2018-May-20 20:00S 23°00' E 164°12'18817.1 150 / 201014.710.8 23.020.726.8
2018-May-20 09:00S 24°06' E 161°00'24418.7 150 / 241016.110.8 22.018.928.4
2018-May-19 20:00S 25°30' E 156°48'19917.9 140 / 181018.010.8 21.515.725.9
2018-May-19 08:50S 26°41' E 153°20'617.0
2018-May-19 08:30S 26°42' E 153°14'711.8
2018-May-19 07:53S 26°48' E 153°11'513.2
2018-May-19 07:31S 26°53' E 153°10'918.2
2018-May-19 07:00S 27°02' E 153°15'917.2
2018-May-19 06:31S 27°08' E 153°21'917.0
2018-May-19 06:00S 27°16' E 153°17'714.8
2018-May-19 05:30S 27°21' E 153°11'5 9.4
2018-May-19 05:00S 27°25' E 153°08'3 6.8
2018-May-19 04:30S 27°27' E 153°05'1 0.7
2018-May-19 03:10S 27°26' E 153°04'0 0.0
2018-May-19 02:55S 27°26' E 153°04'0 0.0
2018-May-18 19:39S 27°26' E 153°04'0 0.5
2018-May-18 19:30S 27°27' E 153°04'3 5.4
2018-May-18 19:00S 27°26' E 153°07'3 7.0
2018-May-18 18:30S 27°23' E 153°09'610.9
2018-May-18 18:00S 27°18' E 153°13'816.4
2018-May-18 17:30S 27°14' E 153°20'815.1
2018-May-18 17:00S 27°06' E 153°20'714.9
2018-May-18 16:30S 27°00' E 153°14'816.6
2018-May-18 16:00S 26°53' E 153°10'1012.9
2018-May-18 15:12S 26°43' E 153°11'2 9.9
2018-May-18 15:00S 26°42' E 153°13'26113.7
2018-May-17 20:00S 22°36' E 151°36'   120 / 201016.310.8 22.018.927.4
2018-May-15 10:51S 26°41' E 153°14'912.5
2018-May-15 10:09S 26°49' E 153°10'213.9
2018-May-15 10:01S 26°50' E 153°09'816.1
2018-May-15 09:31S 26°57' E 153°13'714.8
2018-May-15 09:01S 27°03' E 153°18'714.8
2018-May-15 08:30S 27°10' E 153°21'715.0
2018-May-15 08:01S 27°16' E 153°16'714.6
2018-May-15 07:30S 27°22' E 153°10'4 7.9
2018-May-15 07:01S 27°25' E 153°08'3 6.4
2018-May-15 06:30S 27°27' E 153°05'1 0.1
2018-May-14 19:53S 27°27' E 153°04'0 0.8
2018-May-14 19:31S 27°27' E 153°04'3 5.3
2018-May-14 19:00S 27°26' E 153°07'4 6.9
2018-May-14 18:30S 27°23' E 153°10'611.3
2018-May-14 18:01S 27°18' E 153°13'816.3
2018-May-14 17:31S 27°13' E 153°20'815.6
2018-May-14 17:00S 27°06' E 153°19'815.3
2018-May-14 16:30S 26°59' E 153°14'816.3
2018-May-14 16:00S 26°52' E 153°10'913.3
2018-May-14 15:18S 26°43' E 153°11'3 8.5
2018-May-14 15:00S 26°42' E 153°13'610.9
2018-May-14 14:27S 26°41' E 153°20'1 0.0
2018-May-12 13:54S 26°41' E 153°19'411.5
2018-May-12 13:30S 26°42' E 153°14'7 9.2
2018-May-12 12:42S 26°48' E 153°11'312.7
2018-May-12 12:30S 26°50' E 153°09'917.1
2018-May-12 12:00S 26°58' E 153°13'  
Track history (hours):
 
Tides and Currents Weather Stations Pressure Air Temp Water Temp Dewpoint Dewpoint Depression Visibility Wind Speed Wind Dir Waves Ship Positions

Pacific Dawn

Last reported at 2018-May-22 12:00 UTC. Time now 2018-May-24 09:58 UTC.
Position S 19°18' E 167°36'.

Length 245 m; draft 8.3 m.

Type: Passenger vessel. MMSI: 235059368.

Wind from 140 at 25 knots

Barometer 1014.0 mb
Air temperature 24.0 ° C
Visibility: greater than 10.8 NM
Dewpoint 21.0 ° C
Water temperature 21.0 ° C

Date/timePositionNaut miles runAvg speedWind from/ knotsBaromVisibWave heightAir tempDewpointWater temp
2018-May-22 12:00S 19°18' E 167°36'191 8.0 140 / 251014.010.8 24.021.021.0
2018-May-21 12:02S 22°24' E 166°47'116.0
2018-May-21 11:57S 22°24' E 166°46'817.4
2018-May-21 11:30S 22°23' E 166°37'917.3
2018-May-21 11:00S 22°20' E 166°28'4 8.6
2018-May-21 10:30S 22°16' E 166°26'0 0.5
2018-May-21 10:00S 22°16' E 166°26'0 0.0
2018-May-21 09:30S 22°16' E 166°26'0 0.0
2018-May-21 09:00S 22°16' E 166°26'0 0.0
2018-May-21 08:30S 22°16' E 166°26'0 0.0
2018-May-21 08:00S 22°16' E 166°26'0 0.0
2018-May-21 07:30S 22°16' E 166°26'0 0.0
2018-May-21 07:00S 22°16' E 166°26'0 0.0
2018-May-21 06:30S 22°16' E 166°26'0 0.0
2018-May-21 06:00S 22°16' E 166°26'0 0.0
2018-May-21 05:30S 22°16' E 166°26'0 0.0
2018-May-21 05:00S 22°16' E 166°26'0 0.0
2018-May-21 04:30S 22°16' E 166°26'0 0.0
2018-May-21 04:00S 22°16' E 166°26'2 3.1
2018-May-21 03:30S 22°17' E 166°25'815.2
2018-May-21 03:00S 22°20' E 166°17'612.6
2018-May-21 02:30S 22°24' E 166°12'5315.2
2018-May-20 23:00S 22°42' E 165°18'6321.1 160 / 191015.110.8 26.020.426.9
2018-May-20 20:00S 23°00' E 164°12'18817.1 150 / 201014.710.8 23.020.726.8
2018-May-20 09:00S 24°06' E 161°00'24418.7 150 / 241016.110.8 22.018.928.4
2018-May-19 20:00S 25°30' E 156°48'19917.9 140 / 181018.010.8 21.515.725.9
2018-May-19 08:50S 26°41' E 153°20'617.0
2018-May-19 08:30S 26°42' E 153°14'711.8
2018-May-19 07:53S 26°48' E 153°11'513.2
2018-May-19 07:31S 26°53' E 153°10'918.2
2018-May-19 07:00S 27°02' E 153°15'917.2
2018-May-19 06:31S 27°08' E 153°21'917.0
2018-May-19 06:00S 27°16' E 153°17'714.8
2018-May-19 05:30S 27°21' E 153°11'5 9.4
2018-May-19 05:00S 27°25' E 153°08'3 6.8
2018-May-19 04:30S 27°27' E 153°05'1 0.7
2018-May-19 03:10S 27°26' E 153°04'0 0.0
2018-May-19 02:55S 27°26' E 153°04'0 0.0
2018-May-18 19:39S 27°26' E 153°04'0 0.5
2018-May-18 19:30S 27°27' E 153°04'3 5.4
2018-May-18 19:00S 27°26' E 153°07'3 7.0
2018-May-18 18:30S 27°23' E 153°09'610.9
2018-May-18 18:00S 27°18' E 153°13'816.4
2018-May-18 17:30S 27°14' E 153°20'815.1
2018-May-18 17:00S 27°06' E 153°20'714.9
2018-May-18 16:30S 27°00' E 153°14'816.6
2018-May-18 16:00S 26°53' E 153°10'1012.9
2018-May-18 15:12S 26°43' E 153°11'2 9.9
2018-May-18 15:00S 26°42' E 153°13'26113.7
2018-May-17 20:00S 22°36' E 151°36'   120 / 201016.310.8 22.018.927.4
2018-May-15 10:51S 26°41' E 153°14'912.5
2018-May-15 10:09S 26°49' E 153°10'213.9
2018-May-15 10:01S 26°50' E 153°09'816.1
2018-May-15 09:31S 26°57' E 153°13'714.8
2018-May-15 09:01S 27°03' E 153°18'714.8
2018-May-15 08:30S 27°10' E 153°21'715.0
2018-May-15 08:01S 27°16' E 153°16'714.6
2018-May-15 07:30S 27°22' E 153°10'4 7.9
2018-May-15 07:01S 27°25' E 153°08'3 6.4
2018-May-15 06:30S 27°27' E 153°05'1 0.1
2018-May-14 19:53S 27°27' E 153°04'0 0.8
2018-May-14 19:31S 27°27' E 153°04'3 5.3
2018-May-14 19:00S 27°26' E 153°07'4 6.9
2018-May-14 18:30S 27°23' E 153°10'611.3
2018-May-14 18:01S 27°18' E 153°13'816.3
2018-May-14 17:31S 27°13' E 153°20'815.6
2018-May-14 17:00S 27°06' E 153°19'815.3
2018-May-14 16:30S 26°59' E 153°14'816.3
2018-May-14 16:00S 26°52' E 153°10'913.3
2018-May-14 15:18S 26°43' E 153°11'3 8.5
2018-May-14 15:00S 26°42' E 153°13'610.9
2018-May-14 14:27S 26°41' E 153°20'1 0.0
2018-May-12 13:54S 26°41' E 153°19'411.5
2018-May-12 13:30S 26°42' E 153°14'7 9.2
2018-May-12 12:42S 26°48' E 153°11'312.7
2018-May-12 12:30S 26°50' E 153°09'917.1
2018-May-12 12:00S 26°58' E 153°13'  

Dump ship's entire track history